logo
Rechercher aéroport 
image banner adimage banner adimage banner ad
image banner ad

EPEK - Elk-Makosieje

Situé à , Poland

ICAO - , IATA -

Données fournies par Airmate  

Information générale

Coordonnées: N53°48'26" E22°32'27"
Élévation : 400 feet MSL.
 
Voir autres Aéroports à Podlachia

Données opérationnelles

Special qualification required
Heure actuelle UTC:
Heure actuelle locale:
Météo à : - ( 0 km )
METAR: KSAR 281243Z AUTO 31017G24KT 10SM OVC020 M01/M05 A2993 RMK AO2
Voir NOTAMs / SUP AIP / TFR affectant cet aéroport [VIEW]
Fréquences de communication: [VIEW]

Pistes:

Identifiant RWYQFULongueur (ft)Largeur (ft)SurfaceLDA (ft)
04150998GRAS1509
22150998GRAS1509

Coordonnées de l'aéroport

Adresse: Poland

Vue satellite de EPEK